createdAt,value
2023-04-11T00:03:20.027Z,100601.13
2023-04-11T00:08:21.797Z,100606.63
2023-04-11T00:13:24.046Z,100615.19
2023-04-11T00:18:25.793Z,100606.84
2023-04-11T00:23:27.457Z,100615.22
2023-04-11T00:28:29.101Z,100610.78
2023-04-11T00:33:31.363Z,100616.97
2023-04-11T00:38:33.444Z,100630.00
2023-04-11T00:43:35.108Z,100624.50
2023-04-11T00:48:37.031Z,100637.22
2023-04-11T00:53:38.663Z,100636.53
2023-04-11T00:58:41.600Z,100630.69
2023-04-11T01:03:45.439Z,100641.88
2023-04-11T01:08:47.937Z,100638.25
2023-04-11T01:13:50.468Z,100635.50
2023-04-11T01:18:52.305Z,100636.88
2023-04-11T01:23:54.357Z,100640.00
2023-04-11T01:28:57.582Z,100647.88
2023-04-11T01:34:01.682Z,100647.22
2023-04-11T01:39:03.469Z,100660.63
2023-04-11T01:44:05.771Z,100667.78
2023-04-11T01:49:07.935Z,100663.34
2023-04-11T01:54:09.746Z,100664.91
2023-04-11T01:59:13.015Z,100667.13
2023-04-11T02:04:14.796Z,100672.28
2023-04-11T02:09:16.971Z,100682.19
2023-04-11T02:14:20.414Z,100689.75
2023-04-11T02:19:23.493Z,100693.53
2023-04-11T02:24:28.482Z,100696.78
2023-04-11T02:29:30.841Z,100714.09
2023-04-11T02:34:32.460Z,100710.31
2023-04-11T02:39:34.184Z,100714.44
2023-04-11T02:44:36.055Z,100724.72
2023-04-11T02:49:41.182Z,100726.09
2023-04-11T02:54:46.108Z,100720.97
2023-04-11T02:59:47.997Z,100735.38
2023-04-11T03:04:53.847Z,100738.97
2023-04-11T03:09:55.794Z,100727.16
2023-04-11T03:14:57.421Z,100729.53
2023-04-11T03:19:59.174Z,100730.22
2023-04-11T03:25:01.141Z,100735.00
2023-04-11T03:30:03.721Z,100733.47
2023-04-11T03:35:15.523Z,100747.03
2023-04-11T03:40:20.912Z,100752.16
2023-04-11T03:45:32.647Z,100759.38
2023-04-11T03:50:37.796Z,100745.81
2023-04-11T03:55:40.243Z,100762.81
2023-04-11T04:00:42.936Z,100768.75
2023-04-11T04:05:44.809Z,100777.50
2023-04-11T04:10:47.963Z,100779.53
2023-04-11T04:15:51.604Z,100786.72
2023-04-11T04:20:57.919Z,100785.91
2023-04-11T04:26:02.298Z,100800.28
2023-04-11T04:31:08.489Z,100812.28
2023-04-11T04:36:17.753Z,100823.22
2023-04-11T04:41:22.944Z,100816.38
2023-04-11T04:46:36.970Z,100814.31
2023-04-11T04:51:40.837Z,100827.84
2023-04-11T04:56:44.061Z,100833.28
2023-04-11T05:01:46.888Z,100828.69
2023-04-11T05:06:49.365Z,100837.88
2023-04-11T05:11:52.119Z,100840.13
2023-04-11T05:16:56.250Z,100855.19
2023-04-11T05:21:58.103Z,100849.28
2023-04-11T05:27:00.663Z,100856.81
2023-04-11T05:32:02.500Z,100864.00
2023-04-11T05:37:04.344Z,100867.75
2023-04-11T05:42:07.948Z,100887.00
2023-04-11T05:47:11.578Z,100890.38
2023-04-11T05:52:13.565Z,100907.53
2023-04-11T05:57:15.230Z,100915.91
2023-04-11T06:02:17.456Z,100920.00
2023-04-11T06:07:19.431Z,100915.69
2023-04-11T06:12:21.214Z,100926.63
2023-04-11T06:17:22.975Z,100923.97
2023-04-11T06:22:24.810Z,100932.94
2023-04-11T06:27:26.824Z,100935.66
2023-04-11T06:32:28.781Z,100940.63
2023-04-11T06:37:30.607Z,100940.97
2023-04-11T06:42:32.661Z,100946.84
2023-04-11T06:47:34.286Z,100945.47
2023-04-11T06:52:36.019Z,100944.31
2023-04-11T06:57:37.581Z,100953.97
2023-04-11T07:02:39.666Z,100957.56
2023-04-11T07:07:41.408Z,100962.69
2023-04-11T07:12:42.990Z,100969.75
2023-04-11T07:17:45.002Z,100978.56
2023-04-11T07:22:46.838Z,100994.41
2023-04-11T07:27:51.430Z,100997.31
2023-04-11T07:32:53.286Z,101001.44
2023-04-11T07:37:56.634Z,101020.88
2023-04-11T07:42:58.285Z,101025.69
2023-04-11T07:48:00.372Z,101031.53
2023-04-11T07:53:02.274Z,101033.25
2023-04-11T07:58:04.429Z,101027.94
2023-04-11T08:03:07.724Z,101043.09
2023-04-11T08:08:09.594Z,101060.75
2023-04-11T08:13:11.409Z,101059.56
2023-04-11T08:18:13.804Z,101072.50
2023-04-11T08:23:15.512Z,101069.22
2023-04-11T08:28:17.143Z,101090.34
2023-04-11T08:33:20.406Z,101087.59
2023-04-11T08:38:22.030Z,101092.44
2023-04-11T08:43:23.874Z,101097.28
2023-04-11T08:48:26.398Z,101100.03
2023-04-11T08:53:30.466Z,101101.06
2023-04-11T08:58:32.302Z,101104.47
2023-04-11T09:03:51.394Z,101105.31
2023-04-11T09:08:52.997Z,101109.63
2023-04-11T09:14:11.230Z,101113.88
2023-04-11T09:19:24.497Z,101109.16
2023-04-11T09:24:27.119Z,101111.16
2023-04-11T09:29:45.277Z,101118.97
2023-04-11T09:34:46.887Z,101130.66
2023-04-11T09:39:59.039Z,101137.59
2023-04-11T09:45:00.781Z,101124.06
2023-04-11T09:50:02.970Z,101133.66
2023-04-11T09:55:08.044Z,101130.00
2023-04-11T10:00:18.899Z,101127.72
2023-04-11T10:05:26.119Z,101122.59
2023-04-11T10:10:28.005Z,101131.94
2023-04-11T10:15:30.171Z,101143.28
2023-04-11T10:20:31.855Z,101141.34
2023-04-11T10:26:14.390Z,101153.00
2023-04-11T10:31:17.632Z,101145.72
2023-04-11T10:36:22.151Z,101160.13
2023-04-11T10:41:33.216Z,101160.22
2023-04-11T10:46:44.764Z,101168.22
2023-04-11T10:51:46.517Z,101162.41
2023-04-11T10:56:51.485Z,101156.78
2023-04-11T11:01:55.961Z,101159.13
2023-04-11T11:07:01.798Z,101167.56
2023-04-11T11:12:13.729Z,101150.94
2023-04-11T11:17:17.232Z,101162.97
2023-04-11T11:22:28.786Z,101152.25
2023-04-11T11:27:31.397Z,101161.94
2023-04-11T11:32:33.142Z,101160.88
2023-04-11T11:37:34.851Z,101163.13
2023-04-11T11:42:37.051Z,101173.53
2023-04-11T11:47:46.794Z,101170.41
2023-04-11T11:52:48.837Z,101182.19
2023-04-11T11:57:50.862Z,101185.06
2023-04-11T12:02:53.719Z,101190.88
2023-04-11T12:07:56.603Z,101189.91
2023-04-11T12:12:58.211Z,101195.22
2023-04-11T12:17:59.894Z,101193.63
2023-04-11T12:23:01.592Z,101186.84
2023-04-11T12:28:03.289Z,101202.69
2023-04-11T12:33:06.169Z,101192.13
2023-04-11T12:38:08.070Z,101195.06
2023-04-11T12:43:09.743Z,101196.41
2023-04-11T12:48:11.368Z,101216.56
2023-04-11T12:53:12.922Z,101209.81
2023-04-11T12:58:14.765Z,101198.78
2023-04-11T13:03:17.341Z,101201.91
2023-04-11T13:08:19.082Z,101207.16
2023-04-11T13:13:20.893Z,101202.00
2023-04-11T13:18:22.619Z,101197.16
2023-04-11T13:23:24.251Z,101211.19
2023-04-11T13:28:25.888Z,101212.22
2023-04-11T13:33:27.597Z,101209.84
2023-04-11T13:38:29.346Z,101197.59
2023-04-11T13:43:31.244Z,101206.91
2023-04-11T13:48:32.865Z,101196.38
2023-04-11T13:53:34.660Z,101189.53
2023-04-11T13:58:38.136Z,101188.59
2023-04-11T14:03:42.922Z,101170.94
2023-04-11T14:08:44.939Z,101160.09
2023-04-11T14:13:46.749Z,101147.31
2023-04-11T14:18:48.348Z,101149.97
2023-04-11T14:23:50.152Z,101143.97
2023-04-11T14:28:51.714Z,101143.56
2023-04-11T14:33:53.756Z,101136.22
2023-04-11T14:38:55.433Z,101129.50
2023-04-11T14:43:57.378Z,101125.53
2023-04-11T14:48:59.282Z,101117.91
2023-04-11T14:54:01.406Z,101114.09
2023-04-11T14:59:03.104Z,101119.28
2023-04-11T15:04:04.994Z,101100.34
2023-04-11T15:09:07.037Z,101099.13
2023-04-11T15:14:08.646Z,101113.94
2023-04-11T15:19:10.491Z,101100.78
2023-04-11T15:24:12.087Z,101090.00
2023-04-11T15:29:15.742Z,101075.03
2023-04-11T15:34:17.655Z,101089.13
2023-04-11T15:39:19.444Z,101080.53
2023-04-11T15:44:21.129Z,101065.16
2023-04-11T15:49:22.944Z,101064.50
2023-04-11T15:54:24.617Z,101063.59
2023-04-11T15:59:26.944Z,101061.25
2023-04-11T16:04:29.865Z,101064.38
2023-04-11T16:09:34.779Z,101043.81
2023-04-11T16:14:36.723Z,101036.59
2023-04-11T16:19:38.501Z,101028.72
2023-04-11T16:24:40.174Z,101026.72
2023-04-11T16:29:42.380Z,101006.81
2023-04-11T16:34:44.148Z,101013.91
2023-04-11T16:39:45.936Z,101010.69
2023-04-11T16:44:47.602Z,101006.78
2023-04-11T16:49:49.575Z,101009.06
2023-04-11T16:54:51.629Z,101009.25
2023-04-11T16:59:53.417Z,100994.03
2023-04-11T17:04:55.795Z,100989.06
2023-04-11T17:09:57.445Z,100980.16
2023-04-11T17:15:02.767Z,100978.06
2023-04-11T17:20:09.809Z,100965.78
2023-04-11T17:25:11.776Z,100955.66
2023-04-11T17:30:13.682Z,100951.97
2023-04-11T17:35:15.536Z,100924.56
2023-04-11T17:40:17.574Z,100935.09
2023-04-11T17:45:20.517Z,100918.75
2023-04-11T17:50:22.188Z,100913.84
2023-04-11T17:55:23.951Z,100914.94
2023-04-11T18:00:26.602Z,100916.56
2023-04-11T18:05:31.428Z,100905.19
2023-04-11T18:10:33.712Z,100893.78
2023-04-11T18:15:35.710Z,100893.31
2023-04-11T18:20:37.414Z,100887.75
2023-04-11T18:25:39.084Z,100883.56
2023-04-11T18:30:40.716Z,100869.34
2023-04-11T18:35:42.533Z,100865.75
2023-04-11T18:40:44.417Z,100863.25
2023-04-11T18:45:49.178Z,100843.25
2023-04-11T18:51:04.886Z,100837.00
2023-04-11T18:56:07.280Z,100832.25
2023-04-11T19:01:15.508Z,100818.19
2023-04-11T19:06:18.386Z,100826.72
2023-04-11T19:11:20.093Z,100820.13
2023-04-11T19:16:21.861Z,100808.59
2023-04-11T19:21:23.491Z,100805.50
2023-04-11T19:26:28.362Z,100799.53
2023-04-11T19:31:32.386Z,100780.00
2023-04-11T19:36:34.208Z,100777.53
2023-04-11T19:41:35.882Z,100764.22
2023-04-11T19:46:37.573Z,100751.09
2023-04-11T19:51:40.267Z,100747.41
2023-04-11T19:56:45.407Z,100736.91
2023-04-11T20:01:47.202Z,100735.66
2023-04-11T20:06:50.795Z,100712.56
2023-04-11T20:11:52.487Z,100710.47
2023-04-11T20:16:54.215Z,100694.69
2023-04-11T20:21:56.095Z,100683.78
2023-04-11T20:26:57.857Z,100659.91
2023-04-11T20:31:59.699Z,100650.63
2023-04-11T20:37:01.498Z,100645.31
2023-04-11T20:42:03.322Z,100644.06
2023-04-11T20:47:05.377Z,100628.88
2023-04-11T20:52:07.005Z,100619.16
2023-04-11T20:57:08.715Z,100604.63
2023-04-11T21:02:10.529Z,100604.03
2023-04-11T21:07:12.243Z,100597.19
2023-04-11T21:12:13.878Z,100592.38
2023-04-11T21:17:15.745Z,100588.63
2023-04-11T21:22:17.444Z,100566.91
2023-04-11T21:27:19.275Z,100570.22
2023-04-11T21:32:20.940Z,100570.09
2023-04-11T21:37:22.540Z,100560.53
2023-04-11T21:42:24.153Z,100553.50
2023-04-11T21:47:26.019Z,100534.88
2023-04-11T21:52:27.780Z,100543.38
2023-04-11T21:57:32.704Z,100526.38
2023-04-11T22:02:35.711Z,100523.78
2023-04-11T22:07:46.611Z,100505.66
2023-04-11T22:12:48.966Z,100492.19
2023-04-11T22:17:54.393Z,100481.56
2023-04-11T22:22:57.720Z,100469.47
2023-04-11T22:27:59.388Z,100451.03
2023-04-11T22:33:01.912Z,100448.06
2023-04-11T22:38:03.927Z,100441.91
2023-04-11T22:43:05.706Z,100419.53
2023-04-11T22:48:07.436Z,100409.78
2023-04-11T22:53:09.531Z,100403.81
2023-04-11T22:58:11.223Z,100389.94
2023-04-11T23:03:14.210Z,100372.06
2023-04-11T23:08:15.975Z,100364.50
2023-04-11T23:13:17.583Z,100350.06
2023-04-11T23:18:19.423Z,100343.91
2023-04-11T23:23:21.049Z,100325.88
2023-04-11T23:28:24.216Z,100308.56
2023-04-11T23:33:25.828Z,100296.34
2023-04-11T23:38:27.505Z,100302.91
2023-04-11T23:43:29.122Z,100272.06
2023-04-11T23:48:30.750Z,100242.06
2023-04-11T23:53:32.541Z,100218.53
2023-04-11T23:58:34.440Z,100208.19
